sensor_id;sensor_type;location;lat;lon;timestamp;temperature;humidity
66337;SHT30;53139;45.576;5.304;2023-03-01T00:01:10;0.84;76.72
66337;SHT30;53139;45.576;5.304;2023-03-01T00:04:11;0.85;76.77
66337;SHT30;53139;45.576;5.304;2023-03-01T00:07:12;0.77;76.89
66337;SHT30;53139;45.576;5.304;2023-03-01T00:10:12;0.82;76.51
66337;SHT30;53139;45.576;5.304;2023-03-01T00:13:13;0.74;76.76
66337;SHT30;53139;45.576;5.304;2023-03-01T00:16:35;0.81;76.61
66337;SHT30;53139;45.576;5.304;2023-03-01T00:19:35;0.74;76.62
66337;SHT30;53139;45.576;5.304;2023-03-01T00:22:36;0.74;76.54
66337;SHT30;53139;45.576;5.304;2023-03-01T00:25:41;0.72;76.78
66337;SHT30;53139;45.576;5.304;2023-03-01T00:28:42;0.74;76.57
66337;SHT30;53139;45.576;5.304;2023-03-01T00:31:43;0.70;76.77
66337;SHT30;53139;45.576;5.304;2023-03-01T00:34:43;0.62;76.98
66337;SHT30;53139;45.576;5.304;2023-03-01T00:37:54;0.65;77.01
66337;SHT30;53139;45.576;5.304;2023-03-01T00:41:03;0.70;77.07
66337;SHT30;53139;45.576;5.304;2023-03-01T00:44:04;0.67;77.38
66337;SHT30;53139;45.576;5.304;2023-03-01T00:47:04;0.64;76.89
66337;SHT30;53139;45.576;5.304;2023-03-01T00:50:05;0.58;77.24
66337;SHT30;53139;45.576;5.304;2023-03-01T00:53:06;0.51;77.40
66337;SHT30;53139;45.576;5.304;2023-03-01T00:56:08;0.50;77.75
66337;SHT30;53139;45.576;5.304;2023-03-01T00:59:08;0.49;77.49
66337;SHT30;53139;45.576;5.304;2023-03-01T01:02:08;0.46;77.70
66337;SHT30;53139;45.576;5.304;2023-03-01T01:05:09;0.46;77.33
66337;SHT30;53139;45.576;5.304;2023-03-01T01:08:10;0.41;77.76
66337;SHT30;53139;45.576;5.304;2023-03-01T01:11:11;0.34;77.64
66337;SHT30;53139;45.576;5.304;2023-03-01T01:14:12;0.27;77.77
66337;SHT30;53139;45.576;5.304;2023-03-01T01:17:12;0.16;77.99
66337;SHT30;53139;45.576;5.304;2023-03-01T01:20:13;0.22;78.06
66337;SHT30;53139;45.576;5.304;2023-03-01T01:23:13;0.22;78.17
66337;SHT30;53139;45.576;5.304;2023-03-01T01:26:16;0.23;77.65
66337;SHT30;53139;45.576;5.304;2023-03-01T01:29:17;0.23;77.77
66337;SHT30;53139;45.576;5.304;2023-03-01T01:32:17;0.20;77.70
66337;SHT30;53139;45.576;5.304;2023-03-01T01:35:17;0.22;77.96
66337;SHT30;53139;45.576;5.304;2023-03-01T01:38:18;0.17;78.04
66337;SHT30;53139;45.576;5.304;2023-03-01T01:41:19;0.10;77.99
66337;SHT30;53139;45.576;5.304;2023-03-01T01:44:24;0.05;78.29
66337;SHT30;53139;45.576;5.304;2023-03-01T01:47:32;0.09;77.99
66337;SHT30;53139;45.576;5.304;2023-03-01T01:50:35;0.03;77.97
66337;SHT30;53139;45.576;5.304;2023-03-01T01:53:39;-0.04;78.21
66337;SHT30;53139;45.576;5.304;2023-03-01T01:56:43;-0.08;78.40
66337;SHT30;53139;45.576;5.304;2023-03-01T01:59:49;0.02;78.03
66337;SHT30;53139;45.576;5.304;2023-03-01T02:03:12;-0.08;78.50
66337;SHT30;53139;45.576;5.304;2023-03-01T02:06:26;-0.11;78.18
66337;SHT30;53139;45.576;5.304;2023-03-01T02:09:31;-0.05;78.17
66337;SHT30;53139;45.576;5.304;2023-03-01T02:12:33;-0.05;78.32
66337;SHT30;53139;45.576;5.304;2023-03-01T02:15:35;-0.12;78.48
66337;SHT30;53139;45.576;5.304;2023-03-01T02:18:37;-0.21;78.91
66337;SHT30;53139;45.576;5.304;2023-03-01T02:21:41;-0.16;79.06
66337;SHT30;53139;45.576;5.304;2023-03-01T02:25:09;-0.21;78.61
66337;SHT30;53139;45.576;5.304;2023-03-01T02:31:18;-0.30;78.60
66337;SHT30;53139;45.576;5.304;2023-03-01T02:34:38;-0.32;78.52
66337;SHT30;53139;45.576;5.304;2023-03-01T02:37:40;-0.29;78.87
66337;SHT30;53139;45.576;5.304;2023-03-01T02:40:41;-0.32;79.38
66337;SHT30;53139;45.576;5.304;2023-03-01T02:43:42;-0.32;78.89
66337;SHT30;53139;45.576;5.304;2023-03-01T02:46:46;-0.30;78.91
66337;SHT30;53139;45.576;5.304;2023-03-01T02:49:46;-0.26;78.58
66337;SHT30;53139;45.576;5.304;2023-03-01T02:52:55;-0.37;78.99
66337;SHT30;53139;45.576;5.304;2023-03-01T02:55:56;-0.34;78.98
66337;SHT30;53139;45.576;5.304;2023-03-01T02:58:57;-0.37;79.05
66337;SHT30;53139;45.576;5.304;2023-03-01T03:02:00;-0.42;79.06
66337;SHT30;53139;45.576;5.304;2023-03-01T03:05:10;-0.49;79.12
66337;SHT30;53139;45.576;5.304;2023-03-01T03:08:10;-0.43;79.00
66337;SHT30;53139;45.576;5.304;2023-03-01T03:11:11;-0.48;79.34
66337;SHT30;53139;45.576;5.304;2023-03-01T03:14:13;-0.37;79.02
66337;SHT30;53139;45.576;5.304;2023-03-01T03:17:14;-0.44;79.11
66337;SHT30;53139;45.576;5.304;2023-03-01T03:20:18;-0.37;79.58
66337;SHT30;53139;45.576;5.304;2023-03-01T03:23:22;-0.44;79.44
66337;SHT30;53139;45.576;5.304;2023-03-01T03:26:23;-0.49;79.28
66337;SHT30;53139;45.576;5.304;2023-03-01T03:29:23;-0.52;80.02
66337;SHT30;53139;45.576;5.304;2023-03-01T03:32:24;-0.56;79.54
66337;SHT30;53139;45.576;5.304;2023-03-01T03:35:28;-0.50;79.37
66337;SHT30;53139;45.576;5.304;2023-03-01T03:38:30;-0.49;79.27
66337;SHT30;53139;45.576;5.304;2023-03-01T03:41:30;-0.44;79.14
66337;SHT30;53139;45.576;5.304;2023-03-01T03:44:30;-0.50;79.14
66337;SHT30;53139;45.576;5.304;2023-03-01T03:47:31;-0.49;79.39
66337;SHT30;53139;45.576;5.304;2023-03-01T03:50:32;-0.57;79.40
66337;SHT30;53139;45.576;5.304;2023-03-01T03:53:32;-0.61;79.61
66337;SHT30;53139;45.576;5.304;2023-03-01T03:56:33;-0.66;80.03
66337;SHT30;53139;45.576;5.304;2023-03-01T03:59:33;-0.59;80.06
66337;SHT30;53139;45.576;5.304;2023-03-01T04:02:34;-0.61;79.88
66337;SHT30;53139;45.576;5.304;2023-03-01T04:05:35;-0.57;79.76
66337;SHT30;53139;45.576;5.304;2023-03-01T04:08:36;-0.57;79.74
66337;SHT30;53139;45.576;5.304;2023-03-01T04:11:36;-0.57;79.34
66337;SHT30;53139;45.576;5.304;2023-03-01T04:14:38;-0.59;79.44
66337;SHT30;53139;45.576;5.304;2023-03-01T04:17:44;-0.63;79.58
66337;SHT30;53139;45.576;5.304;2023-03-01T04:20:46;-0.53;79.60
66337;SHT30;53139;45.576;5.304;2023-03-01T04:23:46;-0.56;79.42
66337;SHT30;53139;45.576;5.304;2023-03-01T04:26:47;-0.66;79.40
66337;SHT30;53139;45.576;5.304;2023-03-01T04:29:47;-0.66;79.37
66337;SHT30;53139;45.576;5.304;2023-03-01T04:32:48;-0.56;79.27
66337;SHT30;53139;45.576;5.304;2023-03-01T04:35:48;-0.59;79.59
66337;SHT30;53139;45.576;5.304;2023-03-01T04:38:49;-0.56;79.54
66337;SHT30;53139;45.576;5.304;2023-03-01T04:41:50;-0.64;79.39
66337;SHT30;53139;45.576;5.304;2023-03-01T04:44:50;-0.60;79.23
66337;SHT30;53139;45.576;5.304;2023-03-01T04:47:51;-0.71;79.73
66337;SHT30;53139;45.576;5.304;2023-03-01T04:50:52;-0.66;79.44
66337;SHT30;53139;45.576;5.304;2023-03-01T04:53:52;-0.68;79.73
66337;SHT30;53139;45.576;5.304;2023-03-01T04:56:53;-0.73;79.87
66337;SHT30;53139;45.576;5.304;2023-03-01T04:59:53;-0.71;79.85
66337;SHT30;53139;45.576;5.304;2023-03-01T05:03:00;-0.64;79.20
66337;SHT30;53139;45.576;5.304;2023-03-01T05:06:00;-0.67;79.55
66337;SHT30;53139;45.576;5.304;2023-03-01T05:09:01;-0.71;79.64
66337;SHT30;53139;45.576;5.304;2023-03-01T05:12:01;-0.68;79.71
66337;SHT30;53139;45.576;5.304;2023-03-01T05:15:01;-0.73;79.68
66337;SHT30;53139;45.576;5.304;2023-03-01T05:18:07;-0.80;79.84
66337;SHT30;53139;45.576;5.304;2023-03-01T05:21:13;-0.71;79.69
66337;SHT30;53139;45.576;5.304;2023-03-01T05:24:16;-0.67;79.52
66337;SHT30;53139;45.576;5.304;2023-03-01T05:27:16;-0.64;79.76
66337;SHT30;53139;45.576;5.304;2023-03-01T05:30:17;-0.71;79.68
66337;SHT30;53139;45.576;5.304;2023-03-01T05:33:18;-0.63;79.39
66337;SHT30;53139;45.576;5.304;2023-03-01T05:36:19;-0.63;79.16
66337;SHT30;53139;45.576;5.304;2023-03-01T05:39:21;-0.70;79.44
66337;SHT30;53139;45.576;5.304;2023-03-01T05:42:22;-0.66;79.62
66337;SHT30;53139;45.576;5.304;2023-03-01T05:45:24;-0.67;79.94
66337;SHT30;53139;45.576;5.304;2023-03-01T05:48:25;-0.64;80.05
66337;SHT30;53139;45.576;5.304;2023-03-01T05:51:26;-0.66;79.87
66337;SHT30;53139;45.576;5.304;2023-03-01T05:54:26;-0.74;79.54
66337;SHT30;53139;45.576;5.304;2023-03-01T05:57:28;-0.76;79.40
66337;SHT30;53139;45.576;5.304;2023-03-01T06:00:29;-0.73;79.36
66337;SHT30;53139;45.576;5.304;2023-03-01T06:03:30;-0.77;79.50
66337;SHT30;53139;45.576;5.304;2023-03-01T06:06:33;-0.73;79.64
66337;SHT30;53139;45.576;5.304;2023-03-01T06:09:34;-0.74;79.39
66337;SHT30;53139;45.576;5.304;2023-03-01T06:12:36;-0.61;79.86
66337;SHT30;53139;45.576;5.304;2023-03-01T06:15:36;-0.78;79.63
66337;SHT30;53139;45.576;5.304;2023-03-01T06:18:37;-0.81;79.56
66337;SHT30;53139;45.576;5.304;2023-03-01T06:21:38;-0.77;79.91
66337;SHT30;53139;45.576;5.304;2023-03-01T06:24:38;-0.80;79.71
66337;SHT30;53139;45.576;5.304;2023-03-01T06:27:39;-0.78;79.67
66337;SHT30;53139;45.576;5.304;2023-03-01T06:30:40;-0.81;79.68
66337;SHT30;53139;45.576;5.304;2023-03-01T06:33:40;-0.68;79.59
66337;SHT30;53139;45.576;5.304;2023-03-01T06:36:41;-0.84;79.74
66337;SHT30;53139;45.576;5.304;2023-03-01T06:39:41;-0.78;79.70
66337;SHT30;53139;45.576;5.304;2023-03-01T06:42:43;-0.77;79.42
66337;SHT30;53139;45.576;5.304;2023-03-01T06:45:43;-0.77;79.86
66337;SHT30;53139;45.576;5.304;2023-03-01T06:48:44;-0.81;79.68
66337;SHT30;53139;45.576;5.304;2023-03-01T06:51:44;-0.78;80.07
66337;SHT30;53139;45.576;5.304;2023-03-01T06:54:45;-0.74;79.56
66337;SHT30;53139;45.576;5.304;2023-03-01T06:57:45;-0.78;79.77
66337;SHT30;53139;45.576;5.304;2023-03-01T07:00:46;-0.74;79.96
66337;SHT30;53139;45.576;5.304;2023-03-01T07:03:46;-0.74;79.49
66337;SHT30;53139;45.576;5.304;2023-03-01T07:06:47;-0.66;79.77
66337;SHT30;53139;45.576;5.304;2023-03-01T07:09:54;-0.63;79.34
66337;SHT30;53139;45.576;5.304;2023-03-01T07:12:56;-0.64;79.38
66337;SHT30;53139;45.576;5.304;2023-03-01T07:15:56;-0.67;79.57
66337;SHT30;53139;45.576;5.304;2023-03-01T07:18:57;-0.64;79.71
66337;SHT30;53139;45.576;5.304;2023-03-01T07:21:57;-0.71;79.11
66337;SHT30;53139;45.576;5.304;2023-03-01T07:24:57;-0.63;79.11
66337;SHT30;53139;45.576;5.304;2023-03-01T07:27:58;-0.60;79.42
66337;SHT30;53139;45.576;5.304;2023-03-01T07:31:02;-0.68;79.80
66337;SHT30;53139;45.576;5.304;2023-03-01T07:34:03;-0.56;79.11
66337;SHT30;53139;45.576;5.304;2023-03-01T07:37:05;-0.59;79.28
66337;SHT30;53139;45.576;5.304;2023-03-01T07:40:07;-0.53;79.40
66337;SHT30;53139;45.576;5.304;2023-03-01T07:43:07;-0.57;79.15
66337;SHT30;53139;45.576;5.304;2023-03-01T07:46:07;-0.70;79.21
66337;SHT30;53139;45.576;5.304;2023-03-01T07:49:08;-0.54;79.08
66337;SHT30;53139;45.576;5.304;2023-03-01T07:52:12;-0.36;79.03
66337;SHT30;53139;45.576;5.304;2023-03-01T07:55:12;-0.36;78.58
66337;SHT30;53139;45.576;5.304;2023-03-01T07:58:13;-0.22;78.50
66337;SHT30;53139;45.576;5.304;2023-03-01T08:01:15;-0.48;78.72
66337;SHT30;53139;45.576;5.304;2023-03-01T08:04:16;-0.59;79.37
66337;SHT30;53139;45.576;5.304;2023-03-01T08:07:16;-0.64;79.12
66337;SHT30;53139;45.576;5.304;2023-03-01T08:10:17;-0.59;79.06
66337;SHT30;53139;45.576;5.304;2023-03-01T08:13:17;-0.57;79.11
66337;SHT30;53139;45.576;5.304;2023-03-01T08:16:22;-0.42;78.60
66337;SHT30;53139;45.576;5.304;2023-03-01T08:19:23;-0.32;78.46
66337;SHT30;53139;45.576;5.304;2023-03-01T08:22:23;-0.48;79.02
66337;SHT30;53139;45.576;5.304;2023-03-01T08:25:24;-0.30;78.55
66337;SHT30;53139;45.576;5.304;2023-03-01T08:28:24;-0.43;78.57
66337;SHT30;53139;45.576;5.304;2023-03-01T08:31:28;-0.06;78.09
66337;SHT30;53139;45.576;5.304;2023-03-01T08:34:29;-0.15;77.68
66337;SHT30;53139;45.576;5.304;2023-03-01T08:37:31;-0.23;78.21
66337;SHT30;53139;45.576;5.304;2023-03-01T08:40:33;-0.01;77.80
66337;SHT30;53139;45.576;5.304;2023-03-01T08:43:33;-0.09;77.97
66337;SHT30;53139;45.576;5.304;2023-03-01T08:46:38;-0.13;78.14
66337;SHT30;53139;45.576;5.304;2023-03-01T08:49:40;-0.21;78.14
66337;SHT30;53139;45.576;5.304;2023-03-01T08:52:40;-0.25;78.86
66337;SHT30;53139;45.576;5.304;2023-03-01T08:55:41;-0.04;78.15
66337;SHT30;53139;45.576;5.304;2023-03-01T08:58:45;-0.13;77.85
66337;SHT30;53139;45.576;5.304;2023-03-01T09:01:46;0.12;77.52
66337;SHT30;53139;45.576;5.304;2023-03-01T09:04:46;0.13;77.93
66337;SHT30;53139;45.576;5.304;2023-03-01T09:07:47;-0.25;77.90
66337;SHT30;53139;45.576;5.304;2023-03-01T09:10:47;0.01;78.10
66337;SHT30;53139;45.576;5.304;2023-03-01T09:13:48;-0.05;77.64
66337;SHT30;53139;45.576;5.304;2023-03-01T09:16:49;0.23;77.35
66337;SHT30;53139;45.576;5.304;2023-03-01T09:19:49;0.47;76.71
66337;SHT30;53139;45.576;5.304;2023-03-01T09:22:50;0.34;76.92
66337;SHT30;53139;45.576;5.304;2023-03-01T09:25:50;0.49;76.61
66337;SHT30;53139;45.576;5.304;2023-03-01T09:28:53;0.72;76.53
66337;SHT30;53139;45.576;5.304;2023-03-01T09:31:54;0.65;76.48
66337;SHT30;53139;45.576;5.304;2023-03-01T09:34:57;0.60;76.20
66337;SHT30;53139;45.576;5.304;2023-03-01T09:38:04;0.65;76.29
66337;SHT30;53139;45.576;5.304;2023-03-01T09:47:50;0.85;76.17
66337;SHT30;53139;45.576;5.304;2023-03-01T09:50:51;0.71;76.46
66337;SHT30;53139;45.576;5.304;2023-03-01T09:53:52;0.61;76.00
66337;SHT30;53139;45.576;5.304;2023-03-01T09:57:15;0.67;76.33
66337;SHT30;53139;45.576;5.304;2023-03-01T10:04:11;0.95;75.80
66337;SHT30;53139;45.576;5.304;2023-03-01T10:10:36;0.99;75.72
66337;SHT30;53139;45.576;5.304;2023-03-01T10:16:57;1.16;75.40
66337;SHT30;53139;45.576;5.304;2023-03-01T10:23:15;1.26;75.47
66337;SHT30;53139;45.576;5.304;2023-03-01T10:29:46;1.51;75.14
66337;SHT30;53139;45.576;5.304;2023-03-01T10:32:51;1.60;74.16
66337;SHT30;53139;45.576;5.304;2023-03-01T10:35:53;1.48;75.25
66337;SHT30;53139;45.576;5.304;2023-03-01T10:38:56;1.55;74.52
66337;SHT30;53139;45.576;5.304;2023-03-01T10:42:05;1.27;74.68
66337;SHT30;53139;45.576;5.304;2023-03-01T10:45:39;1.77;74.05
66337;SHT30;53139;45.576;5.304;2023-03-01T10:48:39;1.97;73.89
66337;SHT30;53139;45.576;5.304;2023-03-01T10:51:41;1.99;73.14
66337;SHT30;53139;45.576;5.304;2023-03-01T10:54:51;2.17;72.52
66337;SHT30;53139;45.576;5.304;2023-03-01T11:04:16;1.67;73.33
66337;SHT30;53139;45.576;5.304;2023-03-01T11:07:17;2.09;73.59
66337;SHT30;53139;45.576;5.304;2023-03-01T11:10:20;1.65;73.80
66337;SHT30;53139;45.576;5.304;2023-03-01T11:13:21;1.67;73.46
66337;SHT30;53139;45.576;5.304;2023-03-01T11:16:27;1.65;74.17
66337;SHT30;53139;45.576;5.304;2023-03-01T11:19:29;1.78;73.75
66337;SHT30;53139;45.576;5.304;2023-03-01T11:22:31;2.19;72.74
66337;SHT30;53139;45.576;5.304;2023-03-01T11:25:35;2.38;72.21
66337;SHT30;53139;45.576;5.304;2023-03-01T11:28:39;2.75;71.75
66337;SHT30;53139;45.576;5.304;2023-03-01T11:31:41;2.78;72.00
66337;SHT30;53139;45.576;5.304;2023-03-01T11:35:00;2.32;71.00
66337;SHT30;53139;45.576;5.304;2023-03-01T11:44:24;3.10;71.43
66337;SHT30;53139;45.576;5.304;2023-03-01T11:50:48;3.27;71.11
66337;SHT30;53139;45.576;5.304;2023-03-01T12:04:06;2.99;70.61
66337;SHT30;53139;45.576;5.304;2023-03-01T12:14:01;3.30;69.69
66337;SHT30;53139;45.576;5.304;2023-03-01T12:20:36;3.20;70.22
66337;SHT30;53139;45.576;5.304;2023-03-01T12:30:42;3.09;70.47
66337;SHT30;53139;45.576;5.304;2023-03-01T12:34:15;3.27;70.29
66337;SHT30;53139;45.576;5.304;2023-03-01T12:37:31;3.36;69.32
66337;SHT30;53139;45.576;5.304;2023-03-01T12:40:52;2.71;70.57
66337;SHT30;53139;45.576;5.304;2023-03-01T12:50:47;4.00;69.82
66337;SHT30;53139;45.576;5.304;2023-03-01T12:53:51;3.63;68.64
66337;SHT30;53139;45.576;5.304;2023-03-01T12:56:54;3.55;70.12
66337;SHT30;53139;45.576;5.304;2023-03-01T13:03:40;3.77;68.31
66337;SHT30;53139;45.576;5.304;2023-03-01T13:10:08;3.34;70.50
66337;SHT30;53139;45.576;5.304;2023-03-01T13:13:22;3.50;69.86
66337;SHT30;53139;45.576;5.304;2023-03-01T13:19:29;3.58;69.36
66337;SHT30;53139;45.576;5.304;2023-03-01T13:22:32;3.75;69.49
66337;SHT30;53139;45.576;5.304;2023-03-01T13:25:33;3.58;69.82
66337;SHT30;53139;45.576;5.304;2023-03-01T13:34:51;3.28;70.64
66337;SHT30;53139;45.576;5.304;2023-03-01T13:37:52;3.41;71.12
66337;SHT30;53139;45.576;5.304;2023-03-01T13:41:15;3.51;69.88
66337;SHT30;53139;45.576;5.304;2023-03-01T13:44:28;3.40;70.99
66337;SHT30;53139;45.576;5.304;2023-03-01T13:47:29;3.72;69.50
66337;SHT30;53139;45.576;5.304;2023-03-01T13:50:33;3.64;70.20
66337;SHT30;53139;45.576;5.304;2023-03-01T13:53:41;3.60;71.04
66337;SHT30;53139;45.576;5.304;2023-03-01T13:56:43;3.74;69.84
66337;SHT30;53139;45.576;5.304;2023-03-01T13:59:47;3.82;69.45
66337;SHT30;53139;45.576;5.304;2023-03-01T14:03:02;3.95;70.08
66337;SHT30;53139;45.576;5.304;2023-03-01T14:06:06;3.93;69.56
66337;SHT30;53139;45.576;5.304;2023-03-01T14:09:26;3.88;70.05
66337;SHT30;53139;45.576;5.304;2023-03-01T14:12:57;4.29;69.44
66337;SHT30;53139;45.576;5.304;2023-03-01T14:16:05;4.29;69.13
66337;SHT30;53139;45.576;5.304;2023-03-01T14:19:14;3.99;69.41
66337;SHT30;53139;45.576;5.304;2023-03-01T14:22:21;4.36;68.60
66337;SHT30;53139;45.576;5.304;2023-03-01T14:25:25;4.64;68.50
66337;SHT30;53139;45.576;5.304;2023-03-01T14:28:29;4.62;67.80
66337;SHT30;53139;45.576;5.304;2023-03-01T14:31:37;4.37;68.04
66337;SHT30;53139;45.576;5.304;2023-03-01T14:34:46;4.62;68.15
66337;SHT30;53139;45.576;5.304;2023-03-01T14:37:47;4.53;68.35
66337;SHT30;53139;45.576;5.304;2023-03-01T14:40:56;4.44;69.38
66337;SHT30;53139;45.576;5.304;2023-03-01T14:44:01;4.51;68.76
66337;SHT30;53139;45.576;5.304;2023-03-01T14:47:02;4.62;68.64
66337;SHT30;53139;45.576;5.304;2023-03-01T14:50:04;4.61;68.35
66337;SHT30;53139;45.576;5.304;2023-03-01T14:53:06;4.65;68.70
66337;SHT30;53139;45.576;5.304;2023-03-01T14:56:15;4.54;69.60
66337;SHT30;53139;45.576;5.304;2023-03-01T14:59:23;4.67;68.73
66337;SHT30;53139;45.576;5.304;2023-03-01T15:02:25;4.54;68.66
66337;SHT30;53139;45.576;5.304;2023-03-01T15:05:31;4.41;69.44
66337;SHT30;53139;45.576;5.304;2023-03-01T15:08:32;4.46;69.18
66337;SHT30;53139;45.576;5.304;2023-03-01T15:11:34;4.29;69.13
66337;SHT30;53139;45.576;5.304;2023-03-01T15:14:43;4.23;69.53
66337;SHT30;53139;45.576;5.304;2023-03-01T15:17:43;4.46;69.17
66337;SHT30;53139;45.576;5.304;2023-03-01T15:20:44;4.20;69.32
66337;SHT30;53139;45.576;5.304;2023-03-01T15:23:49;4.00;69.79
66337;SHT30;53139;45.576;5.304;2023-03-01T15:26:52;4.10;70.15
66337;SHT30;53139;45.576;5.304;2023-03-01T15:29:58;4.19;69.85
66337;SHT30;53139;45.576;5.304;2023-03-01T15:36:44;3.98;70.15
66337;SHT30;53139;45.576;5.304;2023-03-01T15:39:56;4.00;69.80
66337;SHT30;53139;45.576;5.304;2023-03-01T15:43:02;4.07;70.05
66337;SHT30;53139;45.576;5.304;2023-03-01T15:46:03;4.13;69.93
66337;SHT30;53139;45.576;5.304;2023-03-01T15:49:06;4.16;70.03
66337;SHT30;53139;45.576;5.304;2023-03-01T15:52:24;3.98;70.32
66337;SHT30;53139;45.576;5.304;2023-03-01T15:55:31;3.86;70.47
66337;SHT30;53139;45.576;5.304;2023-03-01T15:58:33;3.83;70.69
66337;SHT30;53139;45.576;5.304;2023-03-01T16:01:33;3.74;70.71
66337;SHT30;53139;45.576;5.304;2023-03-01T16:04:34;3.77;71.11
66337;SHT30;53139;45.576;5.304;2023-03-01T16:07:35;3.96;70.77
66337;SHT30;53139;45.576;5.304;2023-03-01T16:10:41;3.86;70.86
66337;SHT30;53139;45.576;5.304;2023-03-01T16:13:44;3.92;70.72
66337;SHT30;53139;45.576;5.304;2023-03-01T16:16:45;3.63;71.18
66337;SHT30;53139;45.576;5.304;2023-03-01T16:19:46;3.77;71.06
66337;SHT30;53139;45.576;5.304;2023-03-01T16:22:46;3.85;71.20
66337;SHT30;53139;45.576;5.304;2023-03-01T16:25:47;3.75;71.26
66337;SHT30;53139;45.576;5.304;2023-03-01T16:28:48;3.68;71.60
66337;SHT30;53139;45.576;5.304;2023-03-01T16:31:48;3.74;71.38
66337;SHT30;53139;45.576;5.304;2023-03-01T16:34:48;3.74;71.50
66337;SHT30;53139;45.576;5.304;2023-03-01T16:37:49;3.77;71.87
66337;SHT30;53139;45.576;5.304;2023-03-01T16:40:51;3.65;71.46
66337;SHT30;53139;45.576;5.304;2023-03-01T16:43:51;3.55;71.87
66337;SHT30;53139;45.576;5.304;2023-03-01T16:46:52;3.63;72.63
66337;SHT30;53139;45.576;5.304;2023-03-01T16:49:55;3.61;71.76
66337;SHT30;53139;45.576;5.304;2023-03-01T16:52:55;3.54;71.91
66337;SHT30;53139;45.576;5.304;2023-03-01T16:55:57;3.61;71.91
66337;SHT30;53139;45.576;5.304;2023-03-01T16:58:58;3.67;72.14
66337;SHT30;53139;45.576;5.304;2023-03-01T17:01:58;3.65;72.14
66337;SHT30;53139;45.576;5.304;2023-03-01T17:04:58;3.60;72.41
66337;SHT30;53139;45.576;5.304;2023-03-01T17:07:59;3.54;72.61
66337;SHT30;53139;45.576;5.304;2023-03-01T17:14:04;3.53;72.47
66337;SHT30;53139;45.576;5.304;2023-03-01T17:17:04;3.46;73.01
66337;SHT30;53139;45.576;5.304;2023-03-01T17:20:05;3.48;73.41
66337;SHT30;53139;45.576;5.304;2023-03-01T17:23:06;3.47;73.00
66337;SHT30;53139;45.576;5.304;2023-03-01T17:26:06;3.41;73.22
66337;SHT30;53139;45.576;5.304;2023-03-01T17:29:07;3.44;72.98
66337;SHT30;53139;45.576;5.304;2023-03-01T17:32:08;3.43;73.26
66337;SHT30;53139;45.576;5.304;2023-03-01T17:35:09;3.40;73.17
66337;SHT30;53139;45.576;5.304;2023-03-01T17:38:12;3.36;73.82
66337;SHT30;53139;45.576;5.304;2023-03-01T17:41:12;3.40;73.50
66337;SHT30;53139;45.576;5.304;2023-03-01T17:44:15;3.34;74.91
66337;SHT30;53139;45.576;5.304;2023-03-01T17:47:15;3.27;74.78
66337;SHT30;53139;45.576;5.304;2023-03-01T17:50:16;3.28;74.10
66337;SHT30;53139;45.576;5.304;2023-03-01T17:53:16;3.24;74.85
66337;SHT30;53139;45.576;5.304;2023-03-01T17:56:17;3.23;74.56
66337;SHT30;53139;45.576;5.304;2023-03-01T17:59:17;3.23;74.30
66337;SHT30;53139;45.576;5.304;2023-03-01T18:02:18;3.17;75.04
66337;SHT30;53139;45.576;5.304;2023-03-01T18:05:19;3.19;74.68
66337;SHT30;53139;45.576;5.304;2023-03-01T18:08:19;3.19;75.75
66337;SHT30;53139;45.576;5.304;2023-03-01T18:11:21;3.20;74.79
66337;SHT30;53139;45.576;5.304;2023-03-01T18:14:22;3.24;74.60
66337;SHT30;53139;45.576;5.304;2023-03-01T18:17:23;3.20;75.14
66337;SHT30;53139;45.576;5.304;2023-03-01T18:20:24;3.17;74.74
66337;SHT30;53139;45.576;5.304;2023-03-01T18:23:25;3.10;76.15
66337;SHT30;53139;45.576;5.304;2023-03-01T18:26:26;3.19;74.59
66337;SHT30;53139;45.576;5.304;2023-03-01T18:29:28;3.28;74.50
66337;SHT30;53139;45.576;5.304;2023-03-01T18:32:29;3.31;74.23
66337;SHT30;53139;45.576;5.304;2023-03-01T18:35:29;3.20;74.56
66337;SHT30;53139;45.576;5.304;2023-03-01T18:38:31;3.15;75.50
66337;SHT30;53139;45.576;5.304;2023-03-01T18:41:31;3.06;76.06
66337;SHT30;53139;45.576;5.304;2023-03-01T18:44:33;3.08;77.43
66337;SHT30;53139;45.576;5.304;2023-03-01T18:47:33;3.13;76.54
66337;SHT30;53139;45.576;5.304;2023-03-01T18:50:33;3.08;76.85
66337;SHT30;53139;45.576;5.304;2023-03-01T18:53:34;2.99;78.86
66337;SHT30;53139;45.576;5.304;2023-03-01T18:56:34;3.00;76.44
66337;SHT30;53139;45.576;5.304;2023-03-01T18:59:35;3.05;77.16
66337;SHT30;53139;45.576;5.304;2023-03-01T19:02:35;3.00;78.84
66337;SHT30;53139;45.576;5.304;2023-03-01T19:05:39;3.02;77.28
66337;SHT30;53139;45.576;5.304;2023-03-01T19:08:40;3.09;76.69
66337;SHT30;53139;45.576;5.304;2023-03-01T19:11:42;3.02;76.48
66337;SHT30;53139;45.576;5.304;2023-03-01T19:14:42;3.09;75.95
66337;SHT30;53139;45.576;5.304;2023-03-01T19:17:43;3.10;75.55
66337;SHT30;53139;45.576;5.304;2023-03-01T19:20:43;3.09;76.21
66337;SHT30;53139;45.576;5.304;2023-03-01T19:23:43;3.06;75.85
66337;SHT30;53139;45.576;5.304;2023-03-01T19:26:44;3.08;76.74
66337;SHT30;53139;45.576;5.304;2023-03-01T19:29:44;3.15;75.85
66337;SHT30;53139;45.576;5.304;2023-03-01T19:32:45;3.03;76.90
66337;SHT30;53139;45.576;5.304;2023-03-01T19:35:45;2.96;77.47
66337;SHT30;53139;45.576;5.304;2023-03-01T19:38:46;2.92;78.48
66337;SHT30;53139;45.576;5.304;2023-03-01T19:41:47;2.93;78.00
66337;SHT30;53139;45.576;5.304;2023-03-01T19:44:47;2.93;78.68
66337;SHT30;53139;45.576;5.304;2023-03-01T19:47:47;3.05;76.43
66337;SHT30;53139;45.576;5.304;2023-03-01T19:50:50;2.99;76.55
66337;SHT30;53139;45.576;5.304;2023-03-01T19:53:51;2.99;77.10
66337;SHT30;53139;45.576;5.304;2023-03-01T19:56:51;3.02;77.06
66337;SHT30;53139;45.576;5.304;2023-03-01T19:59:52;2.98;77.89
66337;SHT30;53139;45.576;5.304;2023-03-01T20:02:52;3.00;76.65
66337;SHT30;53139;45.576;5.304;2023-03-01T20:05:53;3.02;76.87
66337;SHT30;53139;45.576;5.304;2023-03-01T20:08:53;2.85;78.18
66337;SHT30;53139;45.576;5.304;2023-03-01T20:11:54;2.87;78.35
66337;SHT30;53139;45.576;5.304;2023-03-01T20:14:54;2.85;77.16
66337;SHT30;53139;45.576;5.304;2023-03-01T20:17:56;2.87;78.08
66337;SHT30;53139;45.576;5.304;2023-03-01T20:20:57;2.91;79.68
66337;SHT30;53139;45.576;5.304;2023-03-01T20:23:58;2.91;78.11
66337;SHT30;53139;45.576;5.304;2023-03-01T20:27:02;2.89;79.56
66337;SHT30;53139;45.576;5.304;2023-03-01T20:30:03;2.95;77.73
66337;SHT30;53139;45.576;5.304;2023-03-01T20:33:04;2.84;79.43
66337;SHT30;53139;45.576;5.304;2023-03-01T20:36:05;2.84;78.63
66337;SHT30;53139;45.576;5.304;2023-03-01T20:39:06;2.82;78.88
66337;SHT30;53139;45.576;5.304;2023-03-01T20:42:07;2.82;79.56
66337;SHT30;53139;45.576;5.304;2023-03-01T20:45:07;2.84;78.49
66337;SHT30;53139;45.576;5.304;2023-03-01T20:48:08;2.85;78.48
66337;SHT30;53139;45.576;5.304;2023-03-01T20:51:09;2.96;77.75
66337;SHT30;53139;45.576;5.304;2023-03-01T20:54:10;2.89;77.37
66337;SHT30;53139;45.576;5.304;2023-03-01T20:57:11;2.89;77.45
66337;SHT30;53139;45.576;5.304;2023-03-01T21:00:11;2.88;77.73
66337;SHT30;53139;45.576;5.304;2023-03-01T21:03:12;2.82;78.07
66337;SHT30;53139;45.576;5.304;2023-03-01T21:06:12;2.80;78.25